Connexion S'enregistrer

Connexion à votre compte

Identifiant
Mot de passe
Maintenir la connexion active sur ce site

Créer un compte

Pour valider ce formulaire, vous devez remplir tous les champs.
Nom
Identifiant
Mot de passe
Répétez le mot de passe
Adresse e-mail
Répétez l'adresse e-mail

METAR/TAF de Chambéry

[source: ADDS]
METAR
LFLB 231030Z AUTO 36008KT 9999 BKN033 22/16 Q1023 NOSIG =
TAF LFLB 230500Z 2306/2406 36008KT 9999 BKN025 BECMG 2308/2311 CAVOK BECMG 2321/2324 18004KT
TAF
TAF LFLB 230500Z 2306/2406 36008KT 9999 BKN025 BECMG 2308/2311 CAVOK BECMG 2321/2324 18004KT =
SR / SS: 04:46 / 18:32 UTC (Lever/Coucher du soleil le 2019-08-23)

 

Webcam de l'Aéroclub - Parking Lima et SW (réactualisation : 5min)

Cliquer ici pour une animation sur les 3 dernières heures / Cliquer sur l'image pour l'agrandir dans une nouvelle fenêtre

 

Webcam de l'Aéroclub - Manche à air et WA (réactualisation : 5min)

Cliquer ici pour une animation sur les 3 dernières heures / Cliquer sur l'image pour l'agrandir dans une nouvelle fenêtre

 

JSN Boot template designed by JoomlaShine.com